createdAt,value
2022-08-17T00:01:32.750Z,52.63
2022-08-17T00:04:21.044Z,52.88
2022-08-17T00:06:49.295Z,53.12
2022-08-17T00:09:18.711Z,53.17
2022-08-17T00:12:40.868Z,53.33
2022-08-17T00:14:36.329Z,53.54
2022-08-17T00:17:06.421Z,53.82
2022-08-17T00:19:33.098Z,53.89
2022-08-17T00:22:34.345Z,53.84
2022-08-17T00:24:50.147Z,54.39
2022-08-17T00:27:17.283Z,54.45
2022-08-17T00:29:45.729Z,54.17
2022-08-17T00:33:22.701Z,54.55
2022-08-17T00:35:00.013Z,54.31
2022-08-17T00:37:26.524Z,54.54
2022-08-17T00:39:53.115Z,54.67
2022-08-17T00:42:19.886Z,54.78
2022-08-17T00:44:46.786Z,54.93
2022-08-17T00:47:13.385Z,55.03
2022-08-17T00:49:40.043Z,55.33
2022-08-17T00:52:15.633Z,55.45
2022-08-17T00:54:44.962Z,55.31
2022-08-17T00:57:20.114Z,55.48
2022-08-17T01:00:03.336Z,55.53
2022-08-17T01:02:42.345Z,55.81
2022-08-17T01:05:19.652Z,55.95
2022-08-17T01:07:49.342Z,55.68
2022-08-17T01:10:59.823Z,55.99
2022-08-17T01:13:05.378Z,56.03
2022-08-17T01:15:36.404Z,55.98
2022-08-17T01:18:05.482Z,55.92
2022-08-17T01:20:41.903Z,55.89
2022-08-17T01:23:20.627Z,56.10
2022-08-17T01:25:52.929Z,56.15
2022-08-17T01:28:52.424Z,56.03
2022-08-17T01:31:08.769Z,56.20
2022-08-17T01:33:35.669Z,56.35
2022-08-17T01:36:03.606Z,56.43
2022-08-17T01:38:31.858Z,57.27
2022-08-17T01:41:03.117Z,58.29
2022-08-17T01:43:43.468Z,58.02
2022-08-17T01:46:14.584Z,57.51
2022-08-17T01:48:42.976Z,57.05
2022-08-17T01:51:09.725Z,56.83
2022-08-17T01:53:41.279Z,56.50
2022-08-17T01:56:14.764Z,56.61
2022-08-17T01:58:42.911Z,56.65
2022-08-17T02:01:11.104Z,56.79
2022-08-17T02:03:38.443Z,56.64
2022-08-17T02:06:12.012Z,56.44
2022-08-17T02:09:01.831Z,56.49
2022-08-17T02:11:29.890Z,56.62
2022-08-17T02:14:02.887Z,56.53
2022-08-17T02:16:37.470Z,56.48
2022-08-17T02:19:07.089Z,56.33
2022-08-17T02:21:34.028Z,56.35
2022-08-17T02:24:00.695Z,56.50
2022-08-17T02:26:27.367Z,56.66
2022-08-17T02:28:53.981Z,56.90
2022-08-17T02:31:21.256Z,56.77
2022-08-17T02:33:47.783Z,56.73
2022-08-17T02:36:27.572Z,57.14
2022-08-17T02:38:54.170Z,57.13
2022-08-17T02:41:20.735Z,56.97
2022-08-17T02:43:47.257Z,56.58
2022-08-17T02:46:13.829Z,56.42
2022-08-17T02:48:40.398Z,56.08
2022-08-17T02:51:07.011Z,56.03
2022-08-17T02:53:35.634Z,55.80
2022-08-17T03:00:21.247Z,56.19
2022-08-17T03:02:48.475Z,56.10
2022-08-17T03:05:20.068Z,55.62
2022-08-17T03:07:46.658Z,55.82
2022-08-17T03:10:14.530Z,55.70
2022-08-17T03:12:42.313Z,55.22
2022-08-17T03:15:18.219Z,55.04
2022-08-17T03:17:45.067Z,54.86
2022-08-17T03:20:13.188Z,54.96
2022-08-17T03:22:43.317Z,54.90
2022-08-17T03:25:19.491Z,54.70
2022-08-17T03:27:49.421Z,54.78
2022-08-17T03:30:18.555Z,54.47
2022-08-17T03:32:49.632Z,54.49
2022-08-17T03:35:18.987Z,54.29
2022-08-17T03:37:45.681Z,54.33
2022-08-17T03:40:12.613Z,54.10
2022-08-17T03:42:41.050Z,54.28
2022-08-17T03:45:15.366Z,54.06
2022-08-17T03:48:14.627Z,53.97
2022-08-17T03:50:59.618Z,54.24
2022-08-17T03:53:54.177Z,53.93
2022-08-17T03:56:40.046Z,54.18
2022-08-17T03:59:06.594Z,54.35
2022-08-17T04:01:50.785Z,54.19
2022-08-17T04:04:20.058Z,53.99
2022-08-17T04:06:54.338Z,54.00
2022-08-17T04:09:20.907Z,53.81
2022-08-17T04:11:47.782Z,53.70
2022-08-17T04:14:14.301Z,53.83
2022-08-17T04:16:41.187Z,54.13
2022-08-17T04:19:07.931Z,54.13
2022-08-17T04:21:34.656Z,53.92
2022-08-17T04:24:01.856Z,53.88
2022-08-17T04:26:54.135Z,54.14
2022-08-17T04:29:16.728Z,54.09
2022-08-17T04:31:43.911Z,54.05
2022-08-17T04:34:10.471Z,54.17
2022-08-17T04:36:37.121Z,53.97
2022-08-17T04:39:03.846Z,54.03
2022-08-17T04:41:49.018Z,53.74
2022-08-17T04:44:27.207Z,53.93
2022-08-17T04:47:02.927Z,53.83
2022-08-17T04:49:29.526Z,53.84
2022-08-17T04:51:59.088Z,53.99
2022-08-17T04:54:29.218Z,54.12
2022-08-17T04:56:55.740Z,54.09
2022-08-17T04:59:22.604Z,53.99
2022-08-17T05:01:51.281Z,53.92
2022-08-17T05:04:34.753Z,54.05
2022-08-17T05:07:02.396Z,54.24
2022-08-17T05:09:29.097Z,54.43
2022-08-17T05:11:56.270Z,54.47
2022-08-17T05:14:33.137Z,54.35
2022-08-17T05:17:00.525Z,54.53
2022-08-17T05:19:28.617Z,54.66
2022-08-17T05:21:55.173Z,54.55
2022-08-17T05:24:39.043Z,54.78
2022-08-17T05:27:08.256Z,55.20
2022-08-17T05:29:35.046Z,56.94
2022-08-17T05:32:37.896Z,59.45
2022-08-17T05:34:59.986Z,61.68
2022-08-17T05:37:26.505Z,62.07
2022-08-17T05:39:53.946Z,63.12
2022-08-17T05:42:20.996Z,63.81
2022-08-17T05:44:47.548Z,64.96
2022-08-17T05:47:14.159Z,65.20
2022-08-17T05:49:40.774Z,65.85
2022-08-17T05:52:26.392Z,65.38
2022-08-17T05:55:12.076Z,66.16
2022-08-17T05:57:53.323Z,66.89
2022-08-17T06:00:20.917Z,67.68
2022-08-17T06:03:17.074Z,68.43
2022-08-17T06:06:01.919Z,69.42
2022-08-17T06:08:56.661Z,70.56
2022-08-17T06:11:37.291Z,70.49
2022-08-17T06:14:45.198Z,70.27
2022-08-17T06:17:17.988Z,69.68
2022-08-17T06:19:59.775Z,70.12
2022-08-17T06:22:32.949Z,70.19
2022-08-17T06:25:04.611Z,70.25
2022-08-17T06:27:47.251Z,69.60
2022-08-17T06:30:22.154Z,69.86
2022-08-17T06:32:51.048Z,69.74
2022-08-17T06:35:39.875Z,69.58
2022-08-17T06:38:37.157Z,68.99
2022-08-17T06:41:15.518Z,68.74
2022-08-17T06:44:10.004Z,69.58
2022-08-17T06:46:36.472Z,69.15
2022-08-17T06:49:15.223Z,67.54
2022-08-17T06:51:48.692Z,68.20
2022-08-17T06:54:38.814Z,68.44
2022-08-17T06:57:17.955Z,68.28
2022-08-17T06:59:59.198Z,68.24
2022-08-17T07:02:52.536Z,68.01
2022-08-17T07:05:41.090Z,67.37
2022-08-17T07:08:18.653Z,66.87
2022-08-17T07:10:52.990Z,66.70
2022-08-17T07:13:25.725Z,66.05
2022-08-17T07:15:59.093Z,66.38
2022-08-17T07:18:33.032Z,65.98
2022-08-17T07:21:17.549Z,66.97
2022-08-17T07:24:26.349Z,66.06
2022-08-17T07:27:15.504Z,67.12
2022-08-17T07:29:46.917Z,66.94
2022-08-17T07:32:18.508Z,67.27
2022-08-17T07:35:37.554Z,66.04
2022-08-17T07:38:25.205Z,64.53
2022-08-17T07:41:02.641Z,64.38
2022-08-17T07:43:41.651Z,64.64
2022-08-17T07:46:29.639Z,63.91
2022-08-17T07:49:16.011Z,64.08
2022-08-17T07:51:42.421Z,65.12
2022-08-17T07:54:15.017Z,64.86
2022-08-17T07:57:14.083Z,64.60
2022-08-17T08:00:05.774Z,64.57
2022-08-17T08:02:45.404Z,64.57
2022-08-17T08:05:48.781Z,64.66
2022-08-17T08:08:30.199Z,63.01
2022-08-17T08:11:11.903Z,62.57
2022-08-17T08:13:43.544Z,61.04
2022-08-17T08:16:25.062Z,61.07
2022-08-17T08:18:57.183Z,61.20
2022-08-17T08:21:33.458Z,60.12
2022-08-17T08:24:36.469Z,59.50
2022-08-17T08:27:29.163Z,58.30
2022-08-17T08:30:02.889Z,58.87
2022-08-17T08:32:34.919Z,57.62
2022-08-17T08:35:22.629Z,57.31
2022-08-17T08:38:07.533Z,56.73
2022-08-17T08:40:58.542Z,56.74
2022-08-17T08:43:37.796Z,55.93
2022-08-17T08:46:22.261Z,55.64
2022-08-17T08:49:14.377Z,56.18
2022-08-17T08:51:58.166Z,55.94
2022-08-17T08:54:46.372Z,55.06
2022-08-17T08:57:29.436Z,53.40
2022-08-17T09:00:21.661Z,53.75
2022-08-17T09:03:13.164Z,53.45
2022-08-17T09:06:03.969Z,54.36
2022-08-17T09:08:42.639Z,54.11
2022-08-17T09:12:01.112Z,53.78
2022-08-17T09:14:56.714Z,52.39
2022-08-17T09:17:43.181Z,51.91
2022-08-17T09:20:27.988Z,52.58
2022-08-17T09:23:08.023Z,52.62
2022-08-17T09:25:48.397Z,52.20
2022-08-17T09:28:24.128Z,51.07
2022-08-17T09:30:51.759Z,51.41
2022-08-17T09:33:27.667Z,50.71
2022-08-17T09:35:59.972Z,49.51
2022-08-17T09:38:40.498Z,49.45
2022-08-17T09:41:23.804Z,48.81
2022-08-17T09:44:02.160Z,49.68
2022-08-17T09:46:34.744Z,49.70
2022-08-17T09:49:25.154Z,49.36
2022-08-17T09:51:58.292Z,49.89
2022-08-17T09:54:39.522Z,49.28
2022-08-17T09:57:32.167Z,48.29
2022-08-17T10:00:18.679Z,49.08
2022-08-17T10:03:04.468Z,48.70
2022-08-17T10:05:45.367Z,48.55
2022-08-17T10:08:27.775Z,49.55
2022-08-17T10:11:52.328Z,50.40
2022-08-17T10:14:44.197Z,50.75
2022-08-17T10:17:20.422Z,51.36
2022-08-17T10:19:53.753Z,52.09
2022-08-17T10:23:02.190Z,51.43
2022-08-17T10:25:55.229Z,50.95
2022-08-17T10:28:30.307Z,51.42
2022-08-17T10:31:32.998Z,53.07
2022-08-17T10:34:26.677Z,54.85
2022-08-17T10:37:04.952Z,59.86
2022-08-17T10:39:34.331Z,60.81
2022-08-17T10:42:37.688Z,63.54
2022-08-17T10:45:15.976Z,64.86
2022-08-17T10:48:06.829Z,65.36
2022-08-17T10:50:49.646Z,65.09
2022-08-17T10:53:31.308Z,64.59
2022-08-17T10:56:25.322Z,66.23
2022-08-17T10:59:01.369Z,64.10
2022-08-17T11:01:39.949Z,60.43
2022-08-17T11:04:18.839Z,60.42
2022-08-17T11:07:05.348Z,59.16
2022-08-17T11:09:44.141Z,59.58
2022-08-17T11:12:37.651Z,59.77
2022-08-17T11:15:16.444Z,57.09
2022-08-17T11:17:53.919Z,59.26
2022-08-17T11:20:59.643Z,58.64
2022-08-17T11:24:01.523Z,58.09
2022-08-17T11:26:33.505Z,54.66
2022-08-17T11:29:09.569Z,51.45
2022-08-17T11:31:41.469Z,50.23
2022-08-17T11:34:26.374Z,49.60
2022-08-17T11:37:20.057Z,48.59
2022-08-17T11:40:05.772Z,48.88
2022-08-17T11:42:53.859Z,51.07
2022-08-17T11:45:43.312Z,50.78
2022-08-17T11:48:49.874Z,48.73
2022-08-17T11:51:34.010Z,47.02
2022-08-17T11:54:34.740Z,49.39
2022-08-17T11:57:42.226Z,49.83
2022-08-17T12:00:49.816Z,49.16
2022-08-17T12:03:34.634Z,48.65
2022-08-17T12:06:06.922Z,48.99
2022-08-17T12:08:41.756Z,48.18
2022-08-17T12:11:56.277Z,48.96
2022-08-17T12:14:08.503Z,49.91
2022-08-17T12:16:35.173Z,48.29
2022-08-17T12:19:03.880Z,47.55
2022-08-17T12:21:45.089Z,47.41
2022-08-17T12:24:11.535Z,48.59
2022-08-17T12:26:40.493Z,46.54
2022-08-17T12:29:18.369Z,45.60
2022-08-17T12:32:04.780Z,40.46
2022-08-17T12:34:38.463Z,39.98
2022-08-17T12:37:13.159Z,37.66
2022-08-17T12:39:48.695Z,40.35
2022-08-17T12:42:24.245Z,41.66
2022-08-17T12:44:50.886Z,41.98
2022-08-17T12:47:22.379Z,41.25
2022-08-17T12:49:52.237Z,42.98
2022-08-17T12:52:26.759Z,43.67
2022-08-17T12:54:57.416Z,42.51
2022-08-17T12:57:29.228Z,42.06
2022-08-17T13:00:01.285Z,40.25
2022-08-17T13:02:32.457Z,39.73
2022-08-17T13:05:01.315Z,38.96
2022-08-17T13:07:32.135Z,37.13
2022-08-17T13:09:58.822Z,36.29
2022-08-17T13:12:30.878Z,35.31
2022-08-17T13:14:58.433Z,34.68
2022-08-17T13:17:27.684Z,34.42
2022-08-17T13:19:54.413Z,33.96
2022-08-17T13:22:24.270Z,32.42
2022-08-17T13:25:03.541Z,32.72
2022-08-17T13:27:30.427Z,32.55
2022-08-17T13:30:00.769Z,33.16
2022-08-17T13:32:30.992Z,34.57
2022-08-17T13:35:14.863Z,35.01
2022-08-17T13:37:59.492Z,34.65
2022-08-17T13:40:30.507Z,34.56
2022-08-17T13:42:57.824Z,34.92
2022-08-17T13:45:36.550Z,34.96
2022-08-17T13:48:15.958Z,35.47
2022-08-17T13:50:57.474Z,36.12
2022-08-17T13:53:31.463Z,35.29
2022-08-17T13:56:37.913Z,35.75
2022-08-17T13:59:52.480Z,34.49
2022-08-17T14:02:20.112Z,34.09
2022-08-17T14:04:48.145Z,33.26
2022-08-17T14:07:15.997Z,33.38
2022-08-17T14:09:53.216Z,32.91
2022-08-17T14:12:25.201Z,31.21
2022-08-17T14:14:53.749Z,31.37
2022-08-17T14:17:20.901Z,31.55
2022-08-17T14:19:48.116Z,31.64
2022-08-17T14:22:34.075Z,31.61
2022-08-17T14:25:04.047Z,31.20
2022-08-17T14:27:33.975Z,30.63
2022-08-17T14:30:10.352Z,31.02
2022-08-17T14:32:38.277Z,30.52
2022-08-17T14:35:06.311Z,31.78
2022-08-17T14:37:34.371Z,30.83
2022-08-17T14:40:05.276Z,32.58
2022-08-17T14:42:34.102Z,32.52
2022-08-17T14:45:06.150Z,32.56
2022-08-17T14:47:52.734Z,33.68
2022-08-17T14:50:21.111Z,32.46
2022-08-17T14:52:49.139Z,33.40
2022-08-17T14:55:20.725Z,32.60
2022-08-17T14:57:47.296Z,33.03
2022-08-17T15:00:16.555Z,32.32
2022-08-17T15:02:53.844Z,32.67
2022-08-17T15:05:23.038Z,32.93
2022-08-17T15:07:49.801Z,33.42
2022-08-17T15:10:17.594Z,32.80
2022-08-17T15:12:44.184Z,33.25
2022-08-17T15:15:14.690Z,33.64
2022-08-17T15:17:46.025Z,33.92
2022-08-17T15:20:24.872Z,34.69
2022-08-17T15:22:55.408Z,34.46
2022-08-17T15:25:23.258Z,35.11
2022-08-17T15:27:50.260Z,35.51
2022-08-17T15:30:17.647Z,35.14
2022-08-17T15:32:51.017Z,35.51
2022-08-17T15:35:27.235Z,35.31
2022-08-17T15:38:04.606Z,35.67
2022-08-17T15:40:37.176Z,35.54
2022-08-17T15:43:08.409Z,35.93
2022-08-17T15:45:35.334Z,36.01
2022-08-17T15:48:02.287Z,36.36
2022-08-17T15:50:28.899Z,36.71
2022-08-17T15:53:00.550Z,37.02
2022-08-17T15:55:29.457Z,37.00
2022-08-17T15:57:55.993Z,37.06
2022-08-17T16:00:23.978Z,37.57
2022-08-17T16:03:46.051Z,37.88
2022-08-17T16:05:37.789Z,37.85
2022-08-17T16:08:07.693Z,38.32
2022-08-17T16:10:35.647Z,38.14
2022-08-17T16:13:03.969Z,39.17
2022-08-17T16:15:33.673Z,38.58
2022-08-17T16:18:00.274Z,39.17
2022-08-17T16:20:27.106Z,38.80
2022-08-17T16:22:54.505Z,39.27
2022-08-17T16:25:52.486Z,39.40
2022-08-17T16:28:13.541Z,39.63
2022-08-17T16:30:41.201Z,39.21
2022-08-17T16:33:11.323Z,39.68
2022-08-17T16:35:38.210Z,39.79
2022-08-17T16:38:04.900Z,40.32
2022-08-17T16:40:35.766Z,39.98
2022-08-17T16:43:03.780Z,40.85
2022-08-17T16:45:36.649Z,41.24
2022-08-17T16:48:03.855Z,41.86
2022-08-17T16:50:31.862Z,42.44
2022-08-17T16:53:07.069Z,42.55
2022-08-17T16:55:35.661Z,43.56
2022-08-17T16:58:06.491Z,44.51
2022-08-17T17:00:33.772Z,47.32
2022-08-17T17:03:19.107Z,51.34
2022-08-17T17:05:51.444Z,53.36
2022-08-17T17:08:34.790Z,53.93
2022-08-17T17:11:13.042Z,54.38
2022-08-17T17:13:46.821Z,56.00
2022-08-17T17:16:21.770Z,58.26
2022-08-17T17:19:05.130Z,58.99
2022-08-17T17:21:43.635Z,59.27
2022-08-17T17:24:17.015Z,59.74
2022-08-17T17:26:55.530Z,60.05
2022-08-17T17:29:48.452Z,60.54
2022-08-17T17:32:27.913Z,60.90
2022-08-17T17:35:05.094Z,61.61
2022-08-17T17:37:35.150Z,61.27
2022-08-17T17:40:24.258Z,60.48
2022-08-17T17:43:14.261Z,60.28
2022-08-17T17:46:21.899Z,61.91
2022-08-17T17:48:48.373Z,61.35
2022-08-17T17:52:03.658Z,61.59
2022-08-17T17:54:35.345Z,61.33
2022-08-17T17:57:18.205Z,62.08
2022-08-17T17:59:58.981Z,62.84
2022-08-17T18:02:51.223Z,62.64
2022-08-17T18:05:37.291Z,62.76
2022-08-17T18:08:32.144Z,62.82
2022-08-17T18:11:12.460Z,62.95
2022-08-17T18:14:03.972Z,64.10
2022-08-17T18:16:32.835Z,63.44
2022-08-17T18:19:00.193Z,63.51
2022-08-17T18:21:37.941Z,64.09
2022-08-17T18:24:07.592Z,63.76
2022-08-17T18:26:53.116Z,63.57
2022-08-17T18:29:31.177Z,64.35
2022-08-17T18:32:25.595Z,64.53
2022-08-17T18:34:57.471Z,64.14
2022-08-17T18:37:48.129Z,63.50
2022-08-17T18:40:17.678Z,64.19
2022-08-17T18:42:50.355Z,65.73
2022-08-17T18:45:35.868Z,66.30
2022-08-17T18:48:02.588Z,66.63
2022-08-17T18:50:39.570Z,65.15
2022-08-17T18:53:34.531Z,62.11
2022-08-17T18:56:30.697Z,62.25
2022-08-17T18:59:06.244Z,63.00
2022-08-17T19:01:59.344Z,62.42
2022-08-17T19:04:37.212Z,62.36
2022-08-17T19:07:12.478Z,63.11
2022-08-17T19:09:45.690Z,63.15
2022-08-17T19:12:27.483Z,64.85
2022-08-17T19:14:56.917Z,65.01
2022-08-17T19:17:29.374Z,65.76
2022-08-17T19:19:59.701Z,64.21
2022-08-17T19:22:34.454Z,64.79
2022-08-17T19:25:12.374Z,65.80
2022-08-17T19:27:50.607Z,64.48
2022-08-17T19:30:24.256Z,63.77
2022-08-17T19:32:50.980Z,63.77
2022-08-17T19:35:20.226Z,65.62
2022-08-17T19:38:12.823Z,67.97
2022-08-17T19:40:53.756Z,68.75
2022-08-17T19:43:53.250Z,68.05
2022-08-17T19:46:26.050Z,67.13
2022-08-17T19:49:33.403Z,66.63
2022-08-17T19:52:10.984Z,66.18
2022-08-17T19:54:45.388Z,66.89
2022-08-17T19:57:21.712Z,66.69
2022-08-17T20:00:01.844Z,66.23
2022-08-17T20:02:47.061Z,67.13
2022-08-17T20:05:19.713Z,67.81
2022-08-17T20:07:58.572Z,68.67
2022-08-17T20:10:40.342Z,68.68
2022-08-17T20:13:15.249Z,68.92
2022-08-17T20:15:44.764Z,68.67
2022-08-17T20:18:24.012Z,69.15
2022-08-17T20:20:58.241Z,70.00
2022-08-17T20:23:45.856Z,70.15
2022-08-17T20:26:14.881Z,69.96
2022-08-17T20:29:14.279Z,69.21
2022-08-17T20:32:04.111Z,68.62
2022-08-17T20:34:37.499Z,69.29
2022-08-17T20:37:27.721Z,69.48
2022-08-17T20:40:00.443Z,69.15
2022-08-17T20:42:27.862Z,69.54
2022-08-17T20:44:58.020Z,69.31
2022-08-17T20:47:31.016Z,69.92
2022-08-17T20:50:27.094Z,70.56
2022-08-17T20:52:57.219Z,70.26
2022-08-17T20:55:35.702Z,70.44
2022-08-17T20:58:24.641Z,71.24
2022-08-17T21:00:57.206Z,71.08
2022-08-17T21:03:23.827Z,70.86
2022-08-17T21:06:00.735Z,71.59
2022-08-17T21:08:46.290Z,71.53
2022-08-17T21:11:59.952Z,71.65
2022-08-17T21:14:38.801Z,71.43
2022-08-17T21:17:14.834Z,71.94
2022-08-17T21:20:08.077Z,72.20
2022-08-17T21:22:43.226Z,70.82
2022-08-17T21:25:48.313Z,69.79
2022-08-17T21:28:33.755Z,69.24
2022-08-17T21:31:08.517Z,68.58
2022-08-17T21:33:38.944Z,68.22
2022-08-17T21:36:15.914Z,66.93
2022-08-17T21:38:57.772Z,68.10
2022-08-17T21:41:33.785Z,69.41
2022-08-17T21:44:27.808Z,69.85
2022-08-17T21:47:22.012Z,69.22
2022-08-17T21:49:49.249Z,69.38
2022-08-17T21:52:18.039Z,68.39
2022-08-17T21:54:55.038Z,69.50
2022-08-17T21:57:29.641Z,68.57
2022-08-17T22:00:00.166Z,68.63
2022-08-17T22:02:37.875Z,69.34
2022-08-17T22:05:11.608Z,70.20
2022-08-17T22:07:50.860Z,71.61
2022-08-17T22:10:34.808Z,71.61
2022-08-17T22:13:19.874Z,72.20
2022-08-17T22:16:15.308Z,72.70
2022-08-17T22:18:57.598Z,72.76
2022-08-17T22:21:25.106Z,72.89
2022-08-17T22:24:05.024Z,73.29
2022-08-17T22:27:01.300Z,72.82
2022-08-17T22:29:47.754Z,72.93
2022-08-17T22:32:41.984Z,73.72
2022-08-17T22:35:34.617Z,73.60
2022-08-17T22:38:19.162Z,72.95
2022-08-17T22:40:52.751Z,73.26
2022-08-17T22:43:26.248Z,73.80
2022-08-17T22:45:55.756Z,73.31
2022-08-17T22:48:27.413Z,73.17
2022-08-17T22:51:13.642Z,73.03
2022-08-17T22:54:19.270Z,73.85
2022-08-17T22:57:17.894Z,74.50
2022-08-17T22:59:50.232Z,74.96
2022-08-17T23:02:34.695Z,73.95
2022-08-17T23:05:10.738Z,73.61
2022-08-17T23:07:37.430Z,74.04
2022-08-17T23:10:06.385Z,73.95
2022-08-17T23:12:38.893Z,73.51
2022-08-17T23:15:11.661Z,74.23
2022-08-17T23:17:38.738Z,73.86
2022-08-17T23:20:08.508Z,74.34
2022-08-17T23:22:37.991Z,74.60
2022-08-17T23:25:28.085Z,74.96
2022-08-17T23:27:55.868Z,75.13
2022-08-17T23:30:25.362Z,75.13
2022-08-17T23:32:54.281Z,75.14
2022-08-17T23:35:39.996Z,75.44
2022-08-17T23:38:08.443Z,75.36
2022-08-17T23:40:35.023Z,75.25
2022-08-17T23:43:05.881Z,75.08
2022-08-17T23:45:38.739Z,75.09
2022-08-17T23:48:06.609Z,75.32
2022-08-17T23:50:33.939Z,75.22
2022-08-17T23:53:02.984Z,75.09
2022-08-17T23:55:34.530Z,75.12
2022-08-17T23:58:02.655Z,75.62
